»·PEaware :: N735DT KCNO-KSBA

N735DT :: KCNO-KSBA

FLIGHT INFORMATION

Flight Status: Arrived
Operator: Privately registered:
United States
More flights under this callsign
Pilot: Wayne C. (13792)
Aircraft: Diamond DA-40
(DA40)
More flights by this aircraft type
Origin: KCNO Chino
United States
Destination: KSBA Santa Barbara Mun
United States
More flights between these airports :: More routes between these airports
Route: PDZ V186 DEANO V27 KWANG
File this flight plan on PilotEdge
Remarks:
Altitude:
(Current/Filed)
6,000ft
Speed:
(Current/Filed)
110kts
Departed: 04-Sep-20 08:15 PM
Arrived: 04-Sep-20 09:19 PM
Distance/Time
Traveled:
113nm/1:04
Distance/Time
To Go:
Arrived

Flight Plot

Page will automatically refresh every two minutes.


Map Options




Map Legend


Flown Route
Filed Route
Departure Airport
Arrival Airport
Navaid (VOR, NDB)
Fix

Horizontal Profiles

Position Reports

Time Latitude Longitude Heading Altitude Ground
Speed
04-Sep-20 19:58 33.977417 -117.641717 164 624ft 0kts
04-Sep-20 19:59 33.977417 -117.641717 164 624ft 0kts
04-Sep-20 20:00 33.977417 -117.641717 164 624ft 0kts
04-Sep-20 20:01 33.977417 -117.641717 164 624ft 0kts
04-Sep-20 20:02 33.977417 -117.641717 164 624ft 0kts
04-Sep-20 20:03 33.977417 -117.641717 164 624ft 0kts
04-Sep-20 20:04 33.977417 -117.641717 164 624ft 0kts
04-Sep-20 20:05 33.977417 -117.641717 164 624ft 0kts
04-Sep-20 20:06 33.977417 -117.641717 164 624ft 0kts
04-Sep-20 20:07 33.976859 -117.641351 83 625ft 6kts
04-Sep-20 20:08 33.976903 -117.637394 88 631ft 12kts
04-Sep-20 20:09 33.976952 -117.631992 87 643ft 17kts
04-Sep-20 20:10 33.976777 -117.630809 175 644ft 0kts
04-Sep-20 20:11 33.976777 -117.630809 175 644ft 0kts
04-Sep-20 20:12 33.976777 -117.630809 175 644ft 0kts
04-Sep-20 20:13 33.976091 -117.630854 187 644ft 19kts
04-Sep-20 20:14 33.975978 -117.649238 269 838ft 83kts
04-Sep-20 20:15 33.975401 -117.678408 262 1508ft 91kts
04-Sep-20 20:16 33.971772 -117.708228 251 2344ft 77kts
04-Sep-20 20:17 33.966352 -117.736103 273 2806ft 102kts
04-Sep-20 20:18 33.975469 -117.767681 312 3408ft 102kts
04-Sep-20 20:19 33.994209 -117.790764 312 4006ft 91kts
04-Sep-20 20:20 34.009099 -117.814196 293 4618ft 86kts
04-Sep-20 20:21 34.018296 -117.841210 290 5215ft 91kts
04-Sep-20 20:22 34.027861 -117.871390 290 5811ft 100kts
04-Sep-20 20:23 34.038981 -117.906491 290 5997ft 120kts
04-Sep-20 20:24 34.044495 -117.923823 290 6000ft 120kts
04-Sep-20 20:25 34.055112 -117.957375 289 5999ft 120kts
04-Sep-20 20:26 34.067095 -117.995017 290 6000ft 120kts
04-Sep-20 20:27 34.072729 -118.012726 290 6000ft 120kts
04-Sep-20 20:28 34.084672 -118.050439 290 5999ft 120kts
04-Sep-20 20:29 34.096584 -118.088074 290 5999ft 120kts
04-Sep-20 20:30 34.108511 -118.125785 290 5999ft 120kts
04-Sep-20 20:31 34.117302 -118.164365 274 6001ft 120kts
04-Sep-20 20:32 34.120032 -118.203933 274 6000ft 120kts
04-Sep-20 20:33 34.122851 -118.244138 274 6001ft 120kts
04-Sep-20 20:34 34.126037 -118.283996 283 5998ft 119kts
04-Sep-20 20:36 34.132722 -118.323374 280 6002ft 120kts
04-Sep-20 20:37 34.138782 -118.363359 280 5999ft 120kts
04-Sep-20 20:38 34.144831 -118.403050 279 5999ft 120kts
04-Sep-20 20:39 34.150799 -118.442242 280 5999ft 120kts
04-Sep-20 20:40 34.156823 -118.481881 280 5999ft 120kts
04-Sep-20 20:41 34.162836 -118.521478 280 6000ft 120kts
04-Sep-20 20:42 34.168880 -118.561388 280 5997ft 118kts
04-Sep-20 20:43 34.174682 -118.599788 280 6000ft 115kts
04-Sep-20 20:44 34.180416 -118.637818 280 5999ft 114kts
04-Sep-20 20:45 34.195796 -118.667813 283 6069ft 109kts
04-Sep-20 20:46 34.203285 -118.703450 283 6177ft 109kts
04-Sep-20 20:47 34.211105 -118.740684 283 6043ft 122kts
04-Sep-20 20:48 34.219313 -118.779572 283 6002ft 116kts
04-Sep-20 20:49 34.227028 -118.815976 284 6149ft 108kts
04-Sep-20 20:50 34.235050 -118.854008 283 6026ft 116kts
04-Sep-20 20:51 34.242981 -118.891362 283 6016ft 118kts
04-Sep-20 20:52 34.250948 -118.928891 283 6055ft 114kts
04-Sep-20 20:53 34.258936 -118.966427 284 6061ft 118kts
04-Sep-20 20:54 34.267262 -119.005556 284 6051ft 121kts
04-Sep-20 20:54 34.274249 -119.038404 284 6052ft 121kts
04-Sep-20 20:55 34.279483 -119.078460 273 6051ft 121kts
04-Sep-20 20:57 34.282171 -119.125880 273 6057ft 121kts
04-Sep-20 20:57 34.283282 -119.159904 269 6051ft 121kts
04-Sep-20 20:58 34.290319 -119.198594 273 6054ft 120kts
04-Sep-20 20:59 34.292615 -119.238104 273 5780ft 115kts
04-Sep-20 21:00 34.295019 -119.276148 274 5379ft 113kts
04-Sep-20 21:01 34.297169 -119.314750 274 4981ft 115kts
04-Sep-20 21:02 34.299364 -119.353175 274 4588ft 114kts
04-Sep-20 21:03 34.301659 -119.391473 274 4181ft 113kts
04-Sep-20 21:04 34.303885 -119.427657 274 4067ft 98kts
04-Sep-20 21:05 34.305857 -119.460315 274 4076ft 104kts
04-Sep-20 21:06 34.308073 -119.496921 274 4063ft 105kts
04-Sep-20 21:07 34.315331 -119.530947 293 3855ft 114kts
04-Sep-20 21:08 34.328041 -119.565231 293 3438ft 105kts
04-Sep-20 21:09 34.339972 -119.597168 293 3088ft 106kts
04-Sep-20 21:10 34.352434 -119.630573 294 2581ft 109kts
04-Sep-20 21:11 34.364840 -119.662659 294 2307ft 95kts
04-Sep-20 21:12 34.375391 -119.689949 294 2299ft 85kts
04-Sep-20 21:13 34.385103 -119.715074 294 2299ft 80kts
04-Sep-20 21:14 34.394890 -119.740494 294 2208ft 95kts
04-Sep-20 21:15 34.406940 -119.772042 292 1885ft 106kts
04-Sep-20 21:16 34.424110 -119.796998 313 1437ft 86kts
04-Sep-20 21:17 34.428111 -119.823301 267 332ft 78kts
04-Sep-20 21:18 34.427788 -119.840513 264 13ft 13kts

Navigation Log

Ident Type
Flight plan parsing failed, navigation log unavailable